createdAt,value
2018-11-26T00:02:23.602Z,16.53
2018-11-26T00:04:53.329Z,14.80
2018-11-26T00:07:22.997Z,16.07
2018-11-26T00:09:52.736Z,14.10
2018-11-26T00:12:22.405Z,14.57
2018-11-26T00:14:52.080Z,13.83
2018-11-26T00:17:21.782Z,11.30
2018-11-26T00:19:51.334Z,11.80
2018-11-26T00:22:21.081Z,10.23
2018-11-26T00:24:50.801Z,9.47
2018-11-26T00:27:20.445Z,10.47
2018-11-26T00:29:49.933Z,9.60
2018-11-26T00:32:19.676Z,8.97
2018-11-26T00:34:49.356Z,8.00
2018-11-26T00:37:19.055Z,8.50
2018-11-26T00:39:48.618Z,8.30
2018-11-26T00:42:18.394Z,8.27
2018-11-26T00:44:48.035Z,8.37
2018-11-26T00:47:17.602Z,9.50
2018-11-26T00:49:47.298Z,8.90
2018-11-26T00:52:16.958Z,8.07
2018-11-26T00:54:46.653Z,7.73
2018-11-26T00:57:16.273Z,8.10
2018-11-26T00:59:46.046Z,7.97
2018-11-26T01:02:15.738Z,8.70
2018-11-26T01:04:48.699Z,8.00
2018-11-26T01:07:20.787Z,8.23
2018-11-26T01:09:54.061Z,9.17
2018-11-26T01:12:23.706Z,7.80
2018-11-26T01:14:53.397Z,8.57
2018-11-26T01:17:23.059Z,8.00
2018-11-26T01:19:52.459Z,8.80
2018-11-26T01:22:22.283Z,9.03
2018-11-26T01:24:51.984Z,8.97
2018-11-26T01:27:21.662Z,9.67
2018-11-26T01:29:51.173Z,9.23
2018-11-26T01:32:20.673Z,8.60
2018-11-26T01:34:50.172Z,9.53
2018-11-26T01:37:19.904Z,9.87
2018-11-26T01:39:49.382Z,10.60
2018-11-26T01:42:19.014Z,10.10
2018-11-26T01:44:48.694Z,10.13
2018-11-26T01:47:18.472Z,11.70
2018-11-26T01:49:48.227Z,11.57
2018-11-26T01:52:17.877Z,11.83
2018-11-26T01:54:47.583Z,12.60
2018-11-26T01:57:17.245Z,11.90
2018-11-26T01:59:46.982Z,13.00
2018-11-26T02:02:16.761Z,12.87
2018-11-26T02:04:46.430Z,13.40
2018-11-26T02:07:16.192Z,14.10
2018-11-26T02:09:45.853Z,14.07
2018-11-26T02:12:15.639Z,13.53
2018-11-26T02:14:45.317Z,13.97
2018-11-26T02:17:14.905Z,14.47
2018-11-26T02:19:44.529Z,14.43
2018-11-26T02:22:14.193Z,16.27
2018-11-26T02:24:43.864Z,14.90
2018-11-26T02:27:13.365Z,14.60
2018-11-26T02:29:43.217Z,16.30
2018-11-26T02:32:12.914Z,16.67
2018-11-26T02:34:42.630Z,15.80
2018-11-26T02:37:12.228Z,18.47
2018-11-26T02:39:41.922Z,16.57
2018-11-26T02:42:11.626Z,17.40
2018-11-26T02:44:41.246Z,20.30
2018-11-26T02:47:10.814Z,19.37
2018-11-26T02:49:40.443Z,17.83
2018-11-26T02:52:09.989Z,16.63
2018-11-26T02:54:39.748Z,20.20
2018-11-26T02:57:09.282Z,20.47
2018-11-26T02:59:38.909Z,20.90
2018-11-26T03:02:08.780Z,19.23
2018-11-26T03:04:38.556Z,19.60
2018-11-26T03:07:08.426Z,21.20
2018-11-26T03:09:38.060Z,21.53
2018-11-26T03:12:07.822Z,21.50
2018-11-26T03:14:37.326Z,23.70
2018-11-26T03:17:06.977Z,21.97
2018-11-26T03:19:36.749Z,22.80
2018-11-26T03:22:06.610Z,23.40
2018-11-26T03:24:36.122Z,23.10
2018-11-26T03:27:06.354Z,21.83
2018-11-26T03:29:36.134Z,25.27
2018-11-26T03:32:05.977Z,23.03
2018-11-26T03:34:35.554Z,23.50
2018-11-26T03:37:05.239Z,24.10
2018-11-26T03:39:34.878Z,24.37
2018-11-26T03:42:04.586Z,25.10
2018-11-26T03:44:34.152Z,23.27
2018-11-26T03:47:03.922Z,23.47
2018-11-26T03:49:33.574Z,24.43
2018-11-26T03:52:03.253Z,22.90
2018-11-26T03:54:32.732Z,23.10
2018-11-26T03:57:02.505Z,25.80
2018-11-26T03:59:32.176Z,24.07
2018-11-26T04:02:01.977Z,24.77
2018-11-26T04:04:31.525Z,26.47
2018-11-26T04:07:01.191Z,26.40
2018-11-26T04:09:30.914Z,25.17
2018-11-26T04:12:00.661Z,25.07
2018-11-26T04:14:30.320Z,23.90
2018-11-26T04:17:03.922Z,27.50
2018-11-26T04:19:33.877Z,25.60
2018-11-26T04:22:03.636Z,25.40
2018-11-26T04:24:33.148Z,25.30
2018-11-26T04:27:02.910Z,25.50
2018-11-26T04:29:32.633Z,26.13
2018-11-26T04:32:02.380Z,28.17
2018-11-26T04:34:32.046Z,26.57
2018-11-26T04:37:01.701Z,27.30
2018-11-26T04:39:31.456Z,28.87
2018-11-26T04:42:01.125Z,27.87
2018-11-26T04:44:30.894Z,28.10
2018-11-26T04:47:00.646Z,27.57
2018-11-26T04:49:30.414Z,30.50
2018-11-26T04:52:00.157Z,29.63
2018-11-26T04:54:29.866Z,28.70
2018-11-26T04:56:59.531Z,28.10
2018-11-26T04:59:29.145Z,28.63
2018-11-26T05:01:58.728Z,28.80
2018-11-26T05:04:28.337Z,33.33
2018-11-26T05:06:57.998Z,32.67
2018-11-26T05:09:27.727Z,32.40
2018-11-26T05:11:57.232Z,29.63
2018-11-26T05:14:26.945Z,28.77
2018-11-26T05:16:56.617Z,30.70
2018-11-26T05:19:26.305Z,28.50
2018-11-26T05:21:55.957Z,29.00
2018-11-26T05:24:25.650Z,29.23
2018-11-26T05:26:55.449Z,29.37
2018-11-26T05:29:25.080Z,30.03
2018-11-26T05:31:54.858Z,29.97
2018-11-26T05:34:24.517Z,29.03
2018-11-26T05:36:54.205Z,28.10
2018-11-26T05:39:23.779Z,31.00
2018-11-26T05:41:53.439Z,29.40
2018-11-26T05:44:23.230Z,27.00
2018-11-26T05:46:52.796Z,30.83
2018-11-26T05:49:22.923Z,26.80
2018-11-26T05:51:52.032Z,31.73
2018-11-26T05:54:21.685Z,29.63
2018-11-26T05:56:51.502Z,29.00
2018-11-26T05:59:21.315Z,29.50
2018-11-26T06:01:51.010Z,29.27
2018-11-26T06:04:20.663Z,28.60
2018-11-26T06:06:50.431Z,28.90
2018-11-26T06:09:19.946Z,27.67
2018-11-26T06:11:49.597Z,26.63
2018-11-26T06:14:19.261Z,29.60
2018-11-26T06:16:53.619Z,48.53
2018-11-26T06:19:18.628Z,33.00
2018-11-26T06:21:48.318Z,30.20
2018-11-26T06:24:18.031Z,29.70
2018-11-26T06:26:47.800Z,28.90
2018-11-26T06:29:17.400Z,28.43
2018-11-26T06:31:47.182Z,30.20
2018-11-26T06:34:17.034Z,31.20
2018-11-26T06:36:46.716Z,31.40
2018-11-26T06:39:16.356Z,31.93
2018-11-26T06:41:46.062Z,27.63
2018-11-26T06:44:15.925Z,27.53
2018-11-26T06:46:45.481Z,28.40
2018-11-26T06:49:15.130Z,28.33
2018-11-26T06:51:44.854Z,28.77
2018-11-26T06:54:14.503Z,27.63
2018-11-26T06:56:43.989Z,29.13
2018-11-26T06:59:13.577Z,29.00
2018-11-26T07:01:43.225Z,27.90
2018-11-26T07:04:12.847Z,29.37
2018-11-26T07:06:42.348Z,26.87
2018-11-26T07:09:11.949Z,27.30
2018-11-26T07:11:41.670Z,28.33
2018-11-26T07:14:11.328Z,24.97
2018-11-26T07:16:40.855Z,27.40
2018-11-26T07:19:10.493Z,24.40
2018-11-26T07:21:40.356Z,23.90
2018-11-26T07:24:10.002Z,23.50
2018-11-26T07:26:39.657Z,22.07
2018-11-26T07:29:09.273Z,23.60
2018-11-26T07:31:38.821Z,23.37
2018-11-26T07:34:15.099Z,24.30
2018-11-26T07:36:44.773Z,28.50
2018-11-26T07:39:14.457Z,41.40
2018-11-26T07:41:44.218Z,56.87
2018-11-26T07:44:13.805Z,40.60
2018-11-26T07:46:43.440Z,34.03
2018-11-26T07:49:13.140Z,28.80
2018-11-26T07:51:42.931Z,28.03
2018-11-26T07:54:12.567Z,22.87
2018-11-26T07:56:42.079Z,23.67
2018-11-26T07:59:11.789Z,23.17
2018-11-26T08:01:41.678Z,24.03
2018-11-26T08:04:11.300Z,23.80
2018-11-26T08:06:40.868Z,23.50
2018-11-26T08:09:10.613Z,22.00
2018-11-26T08:11:40.342Z,21.60
2018-11-26T08:14:10.196Z,21.97
2018-11-26T08:16:39.916Z,21.03
2018-11-26T08:19:09.721Z,19.67
2018-11-26T08:21:39.371Z,23.27
2018-11-26T08:24:09.145Z,37.80
2018-11-26T08:26:38.745Z,41.40
2018-11-26T08:29:08.500Z,31.77
2018-11-26T08:31:38.377Z,26.63
2018-11-26T08:34:08.021Z,24.40
2018-11-26T08:36:43.741Z,22.23
2018-11-26T08:39:18.732Z,21.10
2018-11-26T08:41:53.699Z,19.17
2018-11-26T08:44:28.379Z,20.43
2018-11-26T08:47:04.027Z,19.90
2018-11-26T08:49:33.822Z,17.80
2018-11-26T08:52:03.338Z,17.80
2018-11-26T08:54:32.925Z,18.80
2018-11-26T08:57:02.565Z,19.37
2018-11-26T08:59:32.666Z,18.10
2018-11-26T09:02:02.698Z,17.30
2018-11-26T09:04:34.690Z,18.87
2018-11-26T09:07:04.271Z,17.80
2018-11-26T09:09:34.135Z,16.93
2018-11-26T09:12:03.862Z,18.07
2018-11-26T09:14:33.492Z,17.50
2018-11-26T09:17:03.099Z,17.10
2018-11-26T09:19:32.881Z,17.73
2018-11-26T09:22:02.518Z,17.10
2018-11-26T09:24:31.975Z,16.67
2018-11-26T09:27:01.689Z,17.57
2018-11-26T09:29:31.265Z,19.50
2018-11-26T09:32:00.912Z,16.90
2018-11-26T09:34:30.554Z,17.63
2018-11-26T09:37:00.472Z,19.07
2018-11-26T09:39:30.342Z,17.10
2018-11-26T09:41:59.980Z,18.57
2018-11-26T09:44:29.573Z,16.73
2018-11-26T09:46:59.264Z,16.23
2018-11-26T09:49:28.918Z,17.40
2018-11-26T09:51:58.685Z,16.13
2018-11-26T09:54:28.058Z,16.13
2018-11-26T09:56:57.738Z,16.00
2018-11-26T09:59:27.609Z,15.40
2018-11-26T10:01:57.680Z,15.37
2018-11-26T10:04:27.384Z,14.93
2018-11-26T10:06:57.404Z,14.30
2018-11-26T10:09:27.071Z,14.80
2018-11-26T10:11:56.812Z,15.83
2018-11-26T10:14:27.311Z,14.40
2018-11-26T10:16:56.089Z,15.37
2018-11-26T10:19:25.817Z,14.43
2018-11-26T10:21:55.610Z,14.63
2018-11-26T10:24:25.471Z,14.00
2018-11-26T10:26:55.231Z,15.00
2018-11-26T10:29:24.985Z,14.40
2018-11-26T10:31:54.710Z,12.77
2018-11-26T10:34:24.482Z,13.40
2018-11-26T10:36:54.233Z,13.80
2018-11-26T10:39:23.881Z,14.20
2018-11-26T10:41:53.637Z,13.50
2018-11-26T10:44:23.424Z,15.07
2018-11-26T10:46:53.057Z,13.57
2018-11-26T10:49:22.766Z,13.80
2018-11-26T10:51:52.340Z,13.60
2018-11-26T10:54:21.997Z,13.20
2018-11-26T10:56:51.865Z,12.73
2018-11-26T10:59:21.533Z,14.37
2018-11-26T11:01:56.144Z,12.83
2018-11-26T11:04:25.643Z,13.30
2018-11-26T11:06:55.846Z,13.33
2018-11-26T11:09:25.208Z,13.47
2018-11-26T11:11:54.990Z,13.83
2018-11-26T11:14:24.568Z,14.03
2018-11-26T11:16:54.345Z,11.93
2018-11-26T11:19:24.106Z,13.70
2018-11-26T11:21:53.885Z,12.50
2018-11-26T11:24:23.522Z,13.07
2018-11-26T11:26:53.208Z,12.53
2018-11-26T11:29:23.007Z,12.30
2018-11-26T11:31:52.594Z,11.07
2018-11-26T11:34:22.432Z,10.90
2018-11-26T11:36:52.258Z,12.43
2018-11-26T11:39:22.051Z,10.43
2018-11-26T11:41:51.604Z,9.07
2018-11-26T11:44:25.410Z,9.77
2018-11-26T11:46:55.189Z,9.30
2018-11-26T11:49:24.836Z,9.00
2018-11-26T11:51:54.540Z,8.97
2018-11-26T11:54:24.407Z,8.70
2018-11-26T11:56:54.195Z,8.30
2018-11-26T11:59:24.030Z,8.17
2018-11-26T12:01:53.786Z,9.47
2018-11-26T12:04:23.595Z,8.90
2018-11-26T12:06:53.210Z,12.73
2018-11-26T12:09:22.954Z,10.43
2018-11-26T12:11:52.684Z,9.37
2018-11-26T12:14:22.440Z,10.47
2018-11-26T12:16:52.455Z,9.43
2018-11-26T12:19:22.246Z,10.50
2018-11-26T12:21:51.823Z,8.87
2018-11-26T12:24:21.282Z,9.07
2018-11-26T12:26:50.960Z,10.77
2018-11-26T12:29:20.651Z,10.47
2018-11-26T12:31:50.211Z,11.33
2018-11-26T12:34:19.878Z,11.67
2018-11-26T12:36:49.685Z,10.73
2018-11-26T12:39:19.414Z,11.40
2018-11-26T12:41:49.204Z,11.77
2018-11-26T12:44:19.170Z,10.50
2018-11-26T12:46:48.772Z,10.50
2018-11-26T12:49:18.484Z,11.80
2018-11-26T12:51:48.231Z,16.27
2018-11-26T12:54:18.003Z,12.23
2018-11-26T12:56:47.813Z,10.53
2018-11-26T12:59:17.526Z,10.57
2018-11-26T13:01:47.236Z,10.10
2018-11-26T13:04:17.004Z,10.47
2018-11-26T13:06:46.758Z,8.70
2018-11-26T13:09:16.418Z,10.83
2018-11-26T13:11:46.212Z,10.70
2018-11-26T13:14:16.038Z,11.53
2018-11-26T13:16:45.803Z,12.50
2018-11-26T13:19:15.375Z,11.10
2018-11-26T13:21:45.074Z,12.37
2018-11-26T13:24:14.727Z,11.10
2018-11-26T13:26:44.490Z,12.67
2018-11-26T13:29:14.383Z,11.50
2018-11-26T13:31:43.938Z,13.23
2018-11-26T13:34:13.778Z,11.33
2018-11-26T13:36:44.608Z,11.97
2018-11-26T13:39:14.423Z,12.60
2018-11-26T13:41:44.192Z,12.00
2018-11-26T13:44:13.945Z,12.83
2018-11-26T13:46:43.707Z,12.13
2018-11-26T13:49:13.368Z,13.83
2018-11-26T13:51:43.042Z,13.20
2018-11-26T13:54:12.856Z,13.57
2018-11-26T13:56:42.572Z,13.67
2018-11-26T13:59:12.161Z,13.00
2018-11-26T14:01:41.843Z,15.20
2018-11-26T14:04:11.486Z,13.53
2018-11-26T14:06:41.179Z,14.70
2018-11-26T14:09:11.074Z,22.07
2018-11-26T14:11:40.757Z,17.73
2018-11-26T14:14:10.459Z,12.43
2018-11-26T14:16:40.251Z,13.20
2018-11-26T14:19:09.881Z,11.60
2018-11-26T14:21:39.601Z,13.60
2018-11-26T14:24:09.470Z,12.97
2018-11-26T14:26:39.224Z,15.27
2018-11-26T14:29:08.851Z,15.00
2018-11-26T14:31:38.585Z,16.60
2018-11-26T14:34:08.246Z,13.60
2018-11-26T14:36:38.111Z,14.57
2018-11-26T14:39:08.851Z,14.60
2018-11-26T14:41:38.605Z,19.07
2018-11-26T14:44:08.264Z,16.20
2018-11-26T14:46:37.906Z,16.40
2018-11-26T14:49:07.498Z,15.97
2018-11-26T14:51:37.399Z,13.58
2018-11-26T14:54:07.399Z,15.70
2018-11-26T14:56:36.971Z,14.43
2018-11-26T14:59:06.687Z,16.57
2018-11-26T15:01:36.485Z,14.80
2018-11-26T15:04:06.300Z,16.87
2018-11-26T15:06:35.959Z,18.80
2018-11-26T15:09:07.827Z,15.97
2018-11-26T15:11:37.630Z,15.80
2018-11-26T15:14:08.360Z,16.20
2018-11-26T15:16:37.998Z,17.23
2018-11-26T15:19:07.835Z,16.53
2018-11-26T15:21:37.558Z,17.05
2018-11-26T15:24:07.496Z,16.37
2018-11-26T15:26:37.167Z,16.85
2018-11-26T15:29:06.883Z,17.80
2018-11-26T15:31:36.689Z,19.42
2018-11-26T15:34:06.767Z,16.15
2018-11-26T15:36:36.535Z,16.60
2018-11-26T15:39:09.918Z,15.95
2018-11-26T15:41:39.890Z,16.32
2018-11-26T15:44:09.671Z,18.45
2018-11-26T15:46:39.434Z,16.75
2018-11-26T15:49:09.164Z,16.50
2018-11-26T15:51:38.837Z,16.00
2018-11-26T15:54:08.510Z,16.32
2018-11-26T15:56:38.091Z,17.27
2018-11-26T15:59:07.940Z,18.65
2018-11-26T16:01:37.718Z,16.70
2018-11-26T16:04:07.766Z,17.27
2018-11-26T16:06:37.544Z,16.80
2018-11-26T16:09:10.687Z,15.55
2018-11-26T16:11:40.381Z,14.93
2018-11-26T16:14:09.982Z,12.75
2018-11-26T16:16:39.666Z,10.55
2018-11-26T16:19:09.238Z,10.20
2018-11-26T16:21:38.607Z,8.10
2018-11-26T16:24:08.173Z,7.42
2018-11-26T16:26:37.583Z,7.15
2018-11-26T16:29:07.447Z,7.10
2018-11-26T16:31:36.818Z,5.70
2018-11-26T16:34:06.799Z,4.62
2018-11-26T16:36:36.475Z,5.20
2018-11-26T16:39:08.793Z,4.83
2018-11-26T16:41:38.609Z,5.60
2018-11-26T16:44:08.309Z,7.05
2018-11-26T16:46:37.796Z,5.72
2018-11-26T16:49:07.483Z,6.70
2018-11-26T16:51:38.191Z,6.70
2018-11-26T16:54:07.650Z,7.80
2018-11-26T16:56:37.442Z,7.35
2018-11-26T16:59:07.448Z,7.00
2018-11-26T17:01:37.084Z,6.50
2018-11-26T17:04:06.456Z,6.25
2018-11-26T17:06:36.184Z,5.55
2018-11-26T17:09:08.704Z,5.55
2018-11-26T17:11:38.412Z,5.60
2018-11-26T17:14:08.048Z,5.67
2018-11-26T17:16:37.436Z,6.40
2018-11-26T17:19:07.288Z,15.35
2018-11-26T17:21:36.696Z,6.35
2018-11-26T17:24:06.704Z,6.60
2018-11-26T17:26:36.125Z,6.85
2018-11-26T17:29:06.021Z,6.70
2018-11-26T17:31:35.384Z,6.95
2018-11-26T17:34:04.903Z,8.08
2018-11-26T17:36:34.269Z,7.30
2018-11-26T17:39:04.083Z,7.10
2018-11-26T17:41:33.519Z,7.45
2018-11-26T17:44:02.890Z,7.87
2018-11-26T17:46:32.356Z,6.80
2018-11-26T17:49:01.751Z,7.20
2018-11-26T17:51:31.165Z,6.45
2018-11-26T17:54:00.691Z,7.80
2018-11-26T17:56:30.047Z,6.20
2018-11-26T17:58:59.409Z,6.40
2018-11-26T18:01:33.386Z,7.08
2018-11-26T18:04:02.753Z,6.03
2018-11-26T18:06:32.125Z,6.22
2018-11-26T18:09:01.519Z,6.60
2018-11-26T18:11:30.940Z,6.62
2018-11-26T18:14:00.315Z,6.62
2018-11-26T18:16:29.697Z,6.30
2018-11-26T18:18:59.086Z,5.90
2018-11-26T18:21:28.683Z,6.22
2018-11-26T18:23:58.134Z,7.10
2018-11-26T18:26:27.719Z,6.75
2018-11-26T18:28:57.087Z,6.92
2018-11-26T18:31:26.871Z,6.42
2018-11-26T18:33:56.645Z,7.10
2018-11-26T18:36:26.278Z,7.12
2018-11-26T18:38:55.722Z,6.70
2018-11-26T18:41:25.314Z,7.65
2018-11-26T18:43:54.918Z,8.35
2018-11-26T18:46:24.510Z,8.80
2018-11-26T18:48:53.887Z,7.05
2018-11-26T18:51:23.307Z,7.05
2018-11-26T18:53:52.666Z,5.65
2018-11-26T18:56:22.095Z,6.42
2018-11-26T18:58:51.514Z,6.90
2018-11-26T19:01:20.878Z,7.72
2018-11-26T19:03:50.291Z,6.65
2018-11-26T19:06:20.995Z,5.60
2018-11-26T19:08:50.386Z,6.40
2018-11-26T19:11:20.118Z,6.33
2018-11-26T19:13:57.719Z,5.05
2018-11-26T19:16:29.039Z,6.50
2018-11-26T19:18:58.836Z,6.40
2018-11-26T19:21:28.534Z,6.30
2018-11-26T19:23:58.111Z,7.42
2018-11-26T19:26:27.845Z,6.75
2018-11-26T19:28:57.469Z,6.50
2018-11-26T19:31:27.225Z,7.45
2018-11-26T19:33:56.782Z,6.85
2018-11-26T19:36:26.648Z,6.12
2018-11-26T19:38:56.402Z,6.00
2018-11-26T19:41:26.170Z,6.30
2018-11-26T19:43:55.930Z,6.45
2018-11-26T19:46:25.691Z,7.08
2018-11-26T19:48:55.248Z,6.75
2018-11-26T19:51:24.827Z,7.05
2018-11-26T19:53:54.512Z,6.12
2018-11-26T19:56:24.228Z,5.97
2018-11-26T19:58:53.855Z,7.45
2018-11-26T20:01:23.480Z,6.67
2018-11-26T20:03:57.502Z,7.28
2018-11-26T20:06:27.363Z,7.47
2018-11-26T20:08:59.481Z,8.70
2018-11-26T20:11:33.134Z,7.37
2018-11-26T20:13:58.907Z,7.70
2018-11-26T20:16:40.010Z,9.25
2018-11-26T20:19:09.743Z,9.68
2018-11-26T20:21:39.499Z,8.53
2018-11-26T20:24:09.204Z,9.88
2018-11-26T20:26:38.917Z,8.60
2018-11-26T20:29:14.294Z,8.43
2018-11-26T20:31:44.074Z,9.53
2018-11-26T20:34:13.781Z,9.73
2018-11-26T20:36:43.567Z,9.68
2018-11-26T20:39:13.359Z,10.10
2018-11-26T20:41:43.119Z,9.60
2018-11-26T20:44:12.882Z,8.80
2018-11-26T20:46:42.636Z,9.20
2018-11-26T20:49:12.399Z,8.08
2018-11-26T20:51:42.051Z,6.97
2018-11-26T20:54:11.923Z,8.40
2018-11-26T20:56:41.680Z,7.42
2018-11-26T20:59:11.462Z,9.15
2018-11-26T21:01:41.227Z,10.58
2018-11-26T21:04:10.915Z,9.20
2018-11-26T21:06:40.684Z,7.97
2018-11-26T21:09:10.678Z,8.25
2018-11-26T21:11:40.341Z,7.67
2018-11-26T21:14:10.098Z,8.10
2018-11-26T21:16:39.877Z,8.35
2018-11-26T21:19:09.559Z,7.92
2018-11-26T21:21:39.346Z,8.98
2018-11-26T21:24:08.906Z,9.93
2018-11-26T21:26:38.583Z,13.60
2018-11-26T21:29:08.291Z,14.65
2018-11-26T21:31:37.932Z,15.88
2018-11-26T21:34:07.691Z,14.98
2018-11-26T21:36:38.359Z,15.40
2018-11-26T21:39:10.494Z,16.57
2018-11-26T21:41:40.254Z,18.48
2018-11-26T21:44:10.028Z,15.85
2018-11-26T21:46:39.651Z,18.05
2018-11-26T21:49:08.803Z,17.42
2018-11-26T21:51:38.532Z,16.60
2018-11-26T21:54:08.295Z,15.88
2018-11-26T21:56:38.107Z,14.53
2018-11-26T21:59:07.807Z,12.95
2018-11-26T22:01:37.523Z,12.18
2018-11-26T22:04:07.435Z,12.07
2018-11-26T22:06:37.140Z,11.43
2018-11-26T22:09:09.507Z,10.58
2018-11-26T22:11:39.327Z,8.18
2018-11-26T22:14:09.119Z,6.60
2018-11-26T22:16:38.908Z,5.83
2018-11-26T22:19:08.673Z,4.25
2018-11-26T22:21:38.533Z,4.30
2018-11-26T22:24:08.179Z,3.95
2018-11-26T22:26:37.867Z,4.45
2018-11-26T22:29:07.611Z,4.40
2018-11-26T22:31:37.286Z,5.00
2018-11-26T22:34:07.034Z,6.53
2018-11-26T22:36:36.838Z,6.42
2018-11-26T22:39:09.655Z,8.10
2018-11-26T22:41:39.346Z,8.13
2018-11-26T22:44:09.111Z,7.87
2018-11-26T22:46:38.755Z,9.80
2018-11-26T22:49:08.463Z,8.90
2018-11-26T22:51:38.431Z,10.05
2018-11-26T22:54:08.292Z,10.43
2018-11-26T22:56:38.307Z,10.30
2018-11-26T22:59:08.019Z,12.43
2018-11-26T23:01:37.889Z,12.10
2018-11-26T23:04:07.539Z,11.10
2018-11-26T23:06:37.427Z,13.28
2018-11-26T23:09:09.045Z,12.80
2018-11-26T23:11:38.821Z,13.35
2018-11-26T23:14:08.634Z,11.53
2018-11-26T23:16:38.498Z,12.50
2018-11-26T23:19:08.361Z,12.90
2018-11-26T23:21:38.198Z,13.72
2018-11-26T23:24:07.879Z,13.78
2018-11-26T23:26:37.644Z,15.18
2018-11-26T23:29:07.643Z,14.50
2018-11-26T23:31:38.747Z,13.70
2018-11-26T23:34:08.668Z,14.70
2018-11-26T23:36:38.434Z,14.15
2018-11-26T23:39:09.412Z,14.20
2018-11-26T23:41:39.206Z,14.23
2018-11-26T23:44:10.047Z,15.93
2018-11-26T23:46:40.120Z,14.98
2018-11-26T23:49:10.295Z,13.65
2018-11-26T23:51:39.983Z,13.95
2018-11-26T23:54:09.727Z,13.03
2018-11-26T23:56:39.415Z,13.50
2018-11-26T23:59:09.095Z,13.55
